Domov               UVHVVR             MKGP            O straneh              
ZDRAVSTVENO VARSTVO RASTLIN
  MREŽA AGROMET. POSTAJ
 ► PROGNOSTIČNA OBVESTILA
AGROMETEOROLOŠKI PODATKI -
ARSO
OBVLADOVANJE TVEGANJ ZARADI
NEUGODNIH VREMENSKIH RAZMER
  ► NARAVNE NESREČE
  ► SUŠA/MOČA
  ► NAMAKANJE
  ► ŽLED (gozdarstvo)
KARTOGRAFSKI PRIKAZI
SPLETNE POVEZAVE
PROJEKTI IN PUBLIKACIJE

AGROMETEOROLOŠKA MREŽA: VREMENSKE POSTAJE IN FENOLOŠKA OPAZOVANJA

Pregled podatkov za lokacijo Žalec (PDC), meteorološka postaja 27261

Pregled senzorjev na lokaciji

ID Ime Zadnja
vrednost
Datum
zadnje
spremembe
Tip
senzorja
545 Temperatura 2 m ( °C) 9,4 °C 23.8.2017 06:00 Generic -40 - +60°C
549 Sončno sevanje (W/m2) 0,44 W/m2 23.8.2017 06:00 CMP3 2000 W/m²
550 Temperatura tal ( °C) 20,29 °C 23.8.2017 06:00 Generic -20 - +40 °C
551 Hitrost vetra (km/h) 0,19 km/h 23.8.2017 06:00 Generic km/h
552 Smer vetra (°) 190,97 ° 23.8.2017 06:00 Generic 0 - 360°
558 Maksimalna hitrost vetra (km/h) 38,31 km/h 23.8.2017 06:00 Generic km/h
1460 Padavine 0.2 mm (mm) 0 mm 23.8.2017 06:00 Generic
1461 Relativna vlaga 2 m (% RH) 92,02 % RH 23.8.2017 06:00 Generic 0 - 100 %
3751 Omočenost lista (U) 10 U 23.8.2017 06:00 A730WET

Pregled podatkov zadnjih 24 ur

Zap.
št.
Datum in čas Žalec (PDC)
Hitrost
vetra
Maksimalna
hitrost
vetra
Omočenost
lista
Padavine
0.2
mm
Relativna
vlaga
2
m
Smer
vetra
Sončno
sevanje
Temperatura
2
m
Temperatura
tal
0 23.8.2017 05:00 0,34 38,31 10 0 92,09 238,23 0,24 9,5 20,31
1 23.8.2017 04:30 0,2 38,38 10 0 91,77 171,78 0,05 9,21 20,38
2 23.8.2017 04:00 0,37 38,29 10 0 91,74 188,57 0,06 9,54 20,44
3 23.8.2017 03:30 0,2 38,31 10 0 91,52 109,55 0,08 9,63 20,51
4 23.8.2017 03:00 0,55 38,14 10 0 91,5 143,21 0,07 9,93 20,58
5 23.8.2017 02:30 0,2 38,19 10 0 91,31 168,79 -0,01 10,12 20,65
6 23.8.2017 02:00 0,41 38,09 10 0 91,09 131,7 0,07 10,31 20,72
7 23.8.2017 01:30 0,2 37,97 10 0 90,96 179,56 0,06 10,71 20,79
8 23.8.2017 01:00 0,2 37,92 10 0 90,75 199,76 0,09 10,89 20,86
9 23.8.2017 00:30 0,33 37,82 10 0 90,29 230,92 11,14 20,92
10 23.8.2017 00:00 0,35 37,46 10 0 89,94 214,11 11,54 20,99
11 22.8.2017 23:30 0,54 37,65 10 0 89,69 207,18 11,69 21,05
12 22.8.2017 23:00 0,19 37,63 10 0 88,83 165,61 11,8 21,1
13 22.8.2017 22:30 0,4 37,55 10 0 88,41 232,65 12,39 21,16
14 22.8.2017 22:00 0,49 37,26 10 0 87,71 214,04 12,88 21,21
15 22.8.2017 21:30 0,61 37,26 10 0 86,63 217,89 13,27 21,25
16 22.8.2017 21:00 0,35 36,8 10 0 85,18 277,53 13,65 21,29
17 22.8.2017 20:30 0,75 36,82 10 0 80 213,82 14,54 21,31
18 22.8.2017 20:00 1,16 36,77 7 0 73,59 222,68 16,26 21,33
19 22.8.2017 19:30 1,64 40,56 2,43 0 67,76 154,2 17,32 21,35
20 22.8.2017 19:00 2,36 52,08 0,1 0 50,04 143,83 10,91 20,5 21,34
21 22.8.2017 18:30 3,97 56,33 0 0 41,64 74,56 30,77 21,76 21,32
22 22.8.2017 18:00 4,61 59,06 0 0 39,8 87,92 50,66 22,32 21,29
23 22.8.2017 17:30 4,88 63,56 0 0 37,41 130,45 101,7 23,01 21,25
24 22.8.2017 17:00 4,99 67,83 0 0 35,98 136,29 264,89 23,54 21,21
25 22.8.2017 16:30 5,05 0 0 33,59 338,64 361,84 23,82 21,14
26 22.8.2017 16:00 6,52 0 0 33,79 84,91 446,96 23,69 21,07
27 22.8.2017 15:30 4,8 68,17 0 0 32,18 58,45 534,67 23,64 20,97
28 22.8.2017 15:00 3,84 0 0 33,11 264,06 613,73 23,4 20,88
29 22.8.2017 14:30 4,21 0 0 32,47 32,88 696,5 23,15 20,76
30 22.8.2017 14:00 5,05 0 0 32,4 85,48 727,94 22,97 20,65
31 22.8.2017 13:30 4,5 0 0 33,56 72,08 765,52 22,62 20,52
32 22.8.2017 13:00 4,52 0 0 35,45 136,73 781,83 22,28 20,42
33 22.8.2017 12:30 6,7 64,78 0 0 35,38 297,41 802,49 22,12 20,33
34 22.8.2017 12:00 3,86 63,14 0 0 38,12 221,53 807,5 21,96 20,22
35 22.8.2017 11:30 5,59 62,12 0 0 39,5 94,23 796,64 21,49 20,16
36 22.8.2017 11:00 4,9 61,6 0 0 40,51 287,72 779,25 20,92 20,1
37 22.8.2017 10:30 3,21 61,95 0 0 40,77 212,7 735,56 20,49 20,06
38 22.8.2017 10:00 3,37 54,77 0 0 47,42 192,06 677,39 19,04 20,06
39 22.8.2017 09:30 4,04 46,27 0 0 54,55 284,62 611,22 17,94 20,08
40 22.8.2017 09:00 4,32 36,53 0 0 60,84 284,54 542,07 16,5 20,1
41 22.8.2017 08:30 4,73 35,82 0 0 70,07 281,37 460,1 14,79 20,13
42 22.8.2017 08:00 4,06 35,87 6,2 0 77,69 281,94 370,81 13,21 20,18
43 22.8.2017 07:30 3,35 36,77 10 0 85,71 310,67 289,72 11,63 20,23
44 22.8.2017 07:00 2,73 37,7 10 0 90,84 276,89 205,56 10,18 20,29
45 22.8.2017 06:30 1,07 38,09 10 0 92,11 146,38 134,13 8,69 20,34
© 2011 Ministrstvo za kmetijstvo, gozdarstvo in prehrano. Vse pravice pridržane.